sensor_id;sensor_type;location;lat;lon;timestamp;P1;durP1;ratioP1;P2;durP2;ratioP2
51238;SDS011;38154;47.548;18.828;2022-07-10T00:00:59;1.03;;;0.77;;
51238;SDS011;38154;47.548;18.828;2022-07-10T00:03:25;0.70;;;0.70;;
51238;SDS011;38154;47.548;18.828;2022-07-10T00:05:50;2.62;;;0.80;;
51238;SDS011;38154;47.548;18.828;2022-07-10T00:08:16;1.07;;;0.60;;
51238;SDS011;38154;47.548;18.828;2022-07-10T00:10:42;1.43;;;0.93;;
51238;SDS011;38154;47.548;18.828;2022-07-10T00:13:08;1.48;;;0.82;;
51238;SDS011;38154;47.548;18.828;2022-07-10T00:15:34;0.93;;;0.70;;
51238;SDS011;38154;47.548;18.828;2022-07-10T00:17:59;1.10;;;1.00;;
51238;SDS011;38154;47.548;18.828;2022-07-10T00:20:25;4.20;;;0.73;;
51238;SDS011;38154;47.548;18.828;2022-07-10T00:22:51;2.25;;;0.70;;
51238;SDS011;38154;47.548;18.828;2022-07-10T00:25:17;1.67;;;1.20;;
51238;SDS011;38154;47.548;18.828;2022-07-10T00:27:43;0.80;;;0.80;;
51238;SDS011;38154;47.548;18.828;2022-07-10T00:30:09;0.90;;;0.90;;
51238;SDS011;38154;47.548;18.828;2022-07-10T00:32:36;1.08;;;1.00;;
51238;SDS011;38154;47.548;18.828;2022-07-10T00:35:03;5.53;;;1.02;;
51238;SDS011;38154;47.548;18.828;2022-07-10T00:37:29;1.58;;;0.90;;
51238;SDS011;38154;47.548;18.828;2022-07-10T00:39:56;1.17;;;0.65;;
51238;SDS011;38154;47.548;18.828;2022-07-10T00:42:21;1.20;;;1.10;;
51238;SDS011;38154;47.548;18.828;2022-07-10T00:44:47;0.93;;;0.93;;
51238;SDS011;38154;47.548;18.828;2022-07-10T00:47:13;1.73;;;1.00;;
51238;SDS011;38154;47.548;18.828;2022-07-10T00:49:43;1.08;;;1.00;;
51238;SDS011;38154;47.548;18.828;2022-07-10T00:52:10;2.70;;;0.90;;
51238;SDS011;38154;47.548;18.828;2022-07-10T00:54:40;1.23;;;1.10;;
51238;SDS011;38154;47.548;18.828;2022-07-10T00:57:08;0.62;;;0.62;;
51238;SDS011;38154;47.548;18.828;2022-07-10T00:59:34;2.95;;;1.02;;
51238;SDS011;38154;47.548;18.828;2022-07-10T01:02:04;1.10;;;1.00;;
51238;SDS011;38154;47.548;18.828;2022-07-10T01:04:30;1.58;;;1.08;;
51238;SDS011;38154;47.548;18.828;2022-07-10T01:06:58;1.15;;;1.00;;
51238;SDS011;38154;47.548;18.828;2022-07-10T01:09:24;1.70;;;1.10;;
51238;SDS011;38154;47.548;18.828;2022-07-10T01:11:50;2.83;;;1.10;;
51238;SDS011;38154;47.548;18.828;2022-07-10T01:14:17;1.33;;;1.20;;
51238;SDS011;38154;47.548;18.828;2022-07-10T01:16:43;2.70;;;1.20;;
51238;SDS011;38154;47.548;18.828;2022-07-10T01:19:08;1.30;;;1.20;;
51238;SDS011;38154;47.548;18.828;2022-07-10T01:21:35;1.43;;;1.10;;
51238;SDS011;38154;47.548;18.828;2022-07-10T01:24:06;1.40;;;1.20;;
51238;SDS011;38154;47.548;18.828;2022-07-10T01:26:34;1.10;;;1.02;;
51238;SDS011;38154;47.548;18.828;2022-07-10T01:29:04;3.47;;;1.10;;
51238;SDS011;38154;47.548;18.828;2022-07-10T01:31:32;1.05;;;1.00;;
51238;SDS011;38154;47.548;18.828;2022-07-10T01:33:59;1.60;;;1.15;;
51238;SDS011;38154;47.548;18.828;2022-07-10T01:36:27;2.85;;;1.20;;
51238;SDS011;38154;47.548;18.828;2022-07-10T01:38:55;2.42;;;1.17;;
51238;SDS011;38154;47.548;18.828;2022-07-10T01:41:22;1.10;;;1.00;;
51238;SDS011;38154;47.548;18.828;2022-07-10T01:43:49;1.23;;;1.12;;
51238;SDS011;38154;47.548;18.828;2022-07-10T01:46:16;2.33;;;1.08;;
51238;SDS011;38154;47.548;18.828;2022-07-10T01:48:42;2.25;;;1.42;;
51238;SDS011;38154;47.548;18.828;2022-07-10T01:51:09;2.00;;;1.15;;
51238;SDS011;38154;47.548;18.828;2022-07-10T01:53:36;2.30;;;1.23;;
51238;SDS011;38154;47.548;18.828;2022-07-10T01:56:06;1.50;;;1.27;;
51238;SDS011;38154;47.548;18.828;2022-07-10T01:58:34;1.73;;;1.37;;
51238;SDS011;38154;47.548;18.828;2022-07-10T02:01:00;2.03;;;1.45;;
51238;SDS011;38154;47.548;18.828;2022-07-10T02:06:11;1.40;;;1.27;;
51238;SDS011;38154;47.548;18.828;2022-07-10T02:08:37;2.10;;;1.43;;
51238;SDS011;38154;47.548;18.828;2022-07-10T02:11:03;2.57;;;1.50;;
51238;SDS011;38154;47.548;18.828;2022-07-10T02:13:29;2.20;;;1.60;;
51238;SDS011;38154;47.548;18.828;2022-07-10T02:15:54;1.67;;;1.40;;
51238;SDS011;38154;47.548;18.828;2022-07-10T02:18:22;1.85;;;1.50;;
51238;SDS011;38154;47.548;18.828;2022-07-10T02:20:48;1.65;;;1.25;;
51238;SDS011;38154;47.548;18.828;2022-07-10T02:23:15;1.73;;;1.50;;
51238;SDS011;38154;47.548;18.828;2022-07-10T02:25:41;2.23;;;1.80;;
51238;SDS011;38154;47.548;18.828;2022-07-10T02:28:07;1.50;;;1.23;;
51238;SDS011;38154;47.548;18.828;2022-07-10T02:30:34;2.53;;;1.58;;
51238;SDS011;38154;47.548;18.828;2022-07-10T02:33:00;2.87;;;1.80;;
51238;SDS011;38154;47.548;18.828;2022-07-10T02:35:26;8.20;;;1.33;;
51238;SDS011;38154;47.548;18.828;2022-07-10T02:37:52;1.83;;;1.63;;
51238;SDS011;38154;47.548;18.828;2022-07-10T02:40:18;2.03;;;1.83;;
51238;SDS011;38154;47.548;18.828;2022-07-10T02:42:43;1.67;;;1.57;;
51238;SDS011;38154;47.548;18.828;2022-07-10T02:45:09;6.80;;;1.57;;
51238;SDS011;38154;47.548;18.828;2022-07-10T02:47:36;3.28;;;1.70;;
51238;SDS011;38154;47.548;18.828;2022-07-10T02:50:02;2.35;;;1.37;;
51238;SDS011;38154;47.548;18.828;2022-07-10T02:52:28;5.87;;;1.77;;
51238;SDS011;38154;47.548;18.828;2022-07-10T02:54:56;2.50;;;2.05;;
51238;SDS011;38154;47.548;18.828;2022-07-10T02:57:22;2.00;;;1.70;;
51238;SDS011;38154;47.548;18.828;2022-07-10T02:59:48;1.93;;;1.27;;
51238;SDS011;38154;47.548;18.828;2022-07-10T03:02:14;2.43;;;1.57;;
51238;SDS011;38154;47.548;18.828;2022-07-10T03:04:40;1.67;;;1.45;;
51238;SDS011;38154;47.548;18.828;2022-07-10T03:07:06;1.92;;;1.60;;
51238;SDS011;38154;47.548;18.828;2022-07-10T03:09:32;2.77;;;1.87;;
51238;SDS011;38154;47.548;18.828;2022-07-10T03:11:59;1.50;;;1.17;;
51238;SDS011;38154;47.548;18.828;2022-07-10T03:14:25;1.42;;;1.30;;
51238;SDS011;38154;47.548;18.828;2022-07-10T03:16:51;4.62;;;1.67;;
51238;SDS011;38154;47.548;18.828;2022-07-10T03:19:17;3.30;;;1.90;;
51238;SDS011;38154;47.548;18.828;2022-07-10T03:21:43;2.27;;;1.63;;
51238;SDS011;38154;47.548;18.828;2022-07-10T03:24:10;1.73;;;1.60;;
51238;SDS011;38154;47.548;18.828;2022-07-10T03:26:35;2.13;;;1.70;;
51238;SDS011;38154;47.548;18.828;2022-07-10T03:29:01;3.80;;;2.23;;
51238;SDS011;38154;47.548;18.828;2022-07-10T03:31:27;2.00;;;1.50;;
51238;SDS011;38154;47.548;18.828;2022-07-10T03:33:53;2.63;;;1.87;;
51238;SDS011;38154;47.548;18.828;2022-07-10T03:36:19;1.77;;;1.58;;
51238;SDS011;38154;47.548;18.828;2022-07-10T03:38:45;2.25;;;2.05;;
51238;SDS011;38154;47.548;18.828;2022-07-10T03:41:12;2.40;;;2.00;;
51238;SDS011;38154;47.548;18.828;2022-07-10T03:43:39;2.58;;;1.90;;
51238;SDS011;38154;47.548;18.828;2022-07-10T03:46:05;2.53;;;2.13;;
51238;SDS011;38154;47.548;18.828;2022-07-10T03:48:31;4.73;;;2.20;;
51238;SDS011;38154;47.548;18.828;2022-07-10T03:50:58;3.03;;;2.00;;
51238;SDS011;38154;47.548;18.828;2022-07-10T03:53:24;5.85;;;2.15;;
51238;SDS011;38154;47.548;18.828;2022-07-10T03:55:50;2.47;;;2.07;;
51238;SDS011;38154;47.548;18.828;2022-07-10T03:58:16;4.77;;;2.20;;
51238;SDS011;38154;47.548;18.828;2022-07-10T04:00:42;7.68;;;2.37;;
51238;SDS011;38154;47.548;18.828;2022-07-10T04:05:34;2.20;;;2.00;;
51238;SDS011;38154;47.548;18.828;2022-07-10T04:08:01;2.90;;;2.08;;
51238;SDS011;38154;47.548;18.828;2022-07-10T04:10:28;1.98;;;1.80;;
51238;SDS011;38154;47.548;18.828;2022-07-10T04:12:55;3.30;;;2.00;;
51238;SDS011;38154;47.548;18.828;2022-07-10T04:15:21;5.82;;;2.15;;
51238;SDS011;38154;47.548;18.828;2022-07-10T04:20:13;1.70;;;1.60;;
51238;SDS011;38154;47.548;18.828;2022-07-10T04:25:06;5.65;;;1.73;;
51238;SDS011;38154;47.548;18.828;2022-07-10T04:27:32;4.25;;;2.08;;
51238;SDS011;38154;47.548;18.828;2022-07-10T04:29:58;6.57;;;2.03;;
51238;SDS011;38154;47.548;18.828;2022-07-10T04:32:24;2.17;;;1.75;;
51238;SDS011;38154;47.548;18.828;2022-07-10T04:34:50;6.73;;;1.90;;
51238;SDS011;38154;47.548;18.828;2022-07-10T04:37:16;2.15;;;1.90;;
51238;SDS011;38154;47.548;18.828;2022-07-10T04:39:42;4.07;;;1.77;;
51238;SDS011;38154;47.548;18.828;2022-07-10T04:42:08;2.42;;;2.22;;
51238;SDS011;38154;47.548;18.828;2022-07-10T04:44:35;3.35;;;2.58;;
51238;SDS011;38154;47.548;18.828;2022-07-10T04:47:04;2.00;;;1.80;;
51238;SDS011;38154;47.548;18.828;2022-07-10T04:49:31;3.12;;;2.20;;
51238;SDS011;38154;47.548;18.828;2022-07-10T04:51:57;2.58;;;2.00;;
51238;SDS011;38154;47.548;18.828;2022-07-10T04:54:23;2.53;;;1.50;;
51238;SDS011;38154;47.548;18.828;2022-07-10T04:56:49;2.10;;;1.85;;
51238;SDS011;38154;47.548;18.828;2022-07-10T04:59:15;2.37;;;2.17;;
51238;SDS011;38154;47.548;18.828;2022-07-10T05:01:41;4.80;;;1.98;;
51238;SDS011;38154;47.548;18.828;2022-07-10T05:04:07;5.55;;;2.20;;
51238;SDS011;38154;47.548;18.828;2022-07-10T05:06:34;4.20;;;2.08;;
51238;SDS011;38154;47.548;18.828;2022-07-10T05:09:00;2.62;;;2.30;;
51238;SDS011;38154;47.548;18.828;2022-07-10T05:13:52;1.80;;;1.70;;
51238;SDS011;38154;47.548;18.828;2022-07-10T05:16:18;3.07;;;1.87;;
51238;SDS011;38154;47.548;18.828;2022-07-10T05:18:44;2.60;;;2.15;;
51238;SDS011;38154;47.548;18.828;2022-07-10T05:21:10;4.57;;;2.08;;
51238;SDS011;38154;47.548;18.828;2022-07-10T05:23:37;2.97;;;2.10;;
51238;SDS011;38154;47.548;18.828;2022-07-10T05:26:04;4.25;;;2.00;;
51238;SDS011;38154;47.548;18.828;2022-07-10T05:30:56;3.25;;;2.03;;
51238;SDS011;38154;47.548;18.828;2022-07-10T05:33:22;4.57;;;1.98;;
51238;SDS011;38154;47.548;18.828;2022-07-10T05:35:48;2.77;;;2.03;;
51238;SDS011;38154;47.548;18.828;2022-07-10T05:38:14;2.17;;;1.48;;
51238;SDS011;38154;47.548;18.828;2022-07-10T05:40:40;2.30;;;1.87;;
51238;SDS011;38154;47.548;18.828;2022-07-10T05:43:06;3.37;;;1.93;;
51238;SDS011;38154;47.548;18.828;2022-07-10T05:45:32;1.93;;;1.73;;
51238;SDS011;38154;47.548;18.828;2022-07-10T05:47:58;2.70;;;2.33;;
51238;SDS011;38154;47.548;18.828;2022-07-10T05:50:24;2.27;;;2.00;;
51238;SDS011;38154;47.548;18.828;2022-07-10T05:52:49;2.33;;;1.93;;
51238;SDS011;38154;47.548;18.828;2022-07-10T05:55:15;5.80;;;1.87;;
51238;SDS011;38154;47.548;18.828;2022-07-10T05:57:41;2.30;;;1.90;;
51238;SDS011;38154;47.548;18.828;2022-07-10T06:00:07;1.90;;;1.80;;
51238;SDS011;38154;47.548;18.828;2022-07-10T06:02:34;2.42;;;2.22;;
51238;SDS011;38154;47.548;18.828;2022-07-10T06:05:00;2.20;;;2.00;;
51238;SDS011;38154;47.548;18.828;2022-07-10T06:07:26;2.42;;;1.95;;
51238;SDS011;38154;47.548;18.828;2022-07-10T06:09:53;3.08;;;2.17;;
51238;SDS011;38154;47.548;18.828;2022-07-10T06:12:19;2.87;;;1.80;;
51238;SDS011;38154;47.548;18.828;2022-07-10T06:14:45;3.03;;;1.98;;
51238;SDS011;38154;47.548;18.828;2022-07-10T06:17:11;5.00;;;1.87;;
51238;SDS011;38154;47.548;18.828;2022-07-10T06:19:37;1.52;;;1.42;;
51238;SDS011;38154;47.548;18.828;2022-07-10T06:22:03;1.70;;;1.60;;
51238;SDS011;38154;47.548;18.828;2022-07-10T06:24:48;2.45;;;1.50;;
51238;SDS011;38154;47.548;18.828;2022-07-10T06:27:14;1.60;;;1.50;;
51238;SDS011;38154;47.548;18.828;2022-07-10T06:29:39;2.10;;;1.70;;
51238;SDS011;38154;47.548;18.828;2022-07-10T06:34:32;1.77;;;1.40;;
51238;SDS011;38154;47.548;18.828;2022-07-10T06:36:57;3.83;;;1.50;;
51238;SDS011;38154;47.548;18.828;2022-07-10T06:39:23;6.45;;;1.48;;
51238;SDS011;38154;47.548;18.828;2022-07-10T06:44:15;1.20;;;1.10;;
51238;SDS011;38154;47.548;18.828;2022-07-10T06:49:06;3.03;;;1.20;;
51238;SDS011;38154;47.548;18.828;2022-07-10T06:51:34;1.73;;;1.08;;
51238;SDS011;38154;47.548;18.828;2022-07-10T06:54:00;5.10;;;1.40;;
51238;SDS011;38154;47.548;18.828;2022-07-10T06:56:26;1.33;;;1.20;;
51238;SDS011;38154;47.548;18.828;2022-07-10T06:58:52;1.80;;;1.00;;
51238;SDS011;38154;47.548;18.828;2022-07-10T07:01:18;0.90;;;0.90;;
51238;SDS011;38154;47.548;18.828;2022-07-10T07:03:44;1.42;;;1.02;;
51238;SDS011;38154;47.548;18.828;2022-07-10T07:06:10;1.05;;;0.95;;
51238;SDS011;38154;47.548;18.828;2022-07-10T07:08:36;1.95;;;1.17;;
51238;SDS011;38154;47.548;18.828;2022-07-10T07:11:02;1.30;;;1.20;;
51238;SDS011;38154;47.548;18.828;2022-07-10T07:13:28;1.23;;;1.12;;
51238;SDS011;38154;47.548;18.828;2022-07-10T07:15:54;1.65;;;0.90;;
51238;SDS011;38154;47.548;18.828;2022-07-10T07:18:26;1.50;;;0.75;;
51238;SDS011;38154;47.548;18.828;2022-07-10T07:20:58;0.80;;;0.80;;
51238;SDS011;38154;47.548;18.828;2022-07-10T07:23:43;0.77;;;0.75;;
51238;SDS011;38154;47.548;18.828;2022-07-10T07:26:09;3.15;;;0.93;;
51238;SDS011;38154;47.548;18.828;2022-07-10T07:28:35;1.90;;;0.90;;
51238;SDS011;38154;47.548;18.828;2022-07-10T07:31:01;3.15;;;0.70;;
51238;SDS011;38154;47.548;18.828;2022-07-10T07:33:27;0.75;;;0.70;;
51238;SDS011;38154;47.548;18.828;2022-07-10T07:35:53;1.05;;;0.77;;
51238;SDS011;38154;47.548;18.828;2022-07-10T07:38:18;6.32;;;0.93;;
51238;SDS011;38154;47.548;18.828;2022-07-10T07:40:44;0.80;;;0.80;;
51238;SDS011;38154;47.548;18.828;2022-07-10T07:43:10;0.70;;;0.70;;
51238;SDS011;38154;47.548;18.828;2022-07-10T07:45:37;1.20;;;0.80;;
51238;SDS011;38154;47.548;18.828;2022-07-10T07:48:03;1.05;;;0.70;;
51238;SDS011;38154;47.548;18.828;2022-07-10T07:50:33;3.55;;;0.98;;
51238;SDS011;38154;47.548;18.828;2022-07-10T07:53:00;2.25;;;1.05;;
51238;SDS011;38154;47.548;18.828;2022-07-10T07:55:28;1.70;;;0.98;;
51238;SDS011;38154;47.548;18.828;2022-07-10T07:57:55;1.30;;;0.73;;
51238;SDS011;38154;47.548;18.828;2022-07-10T08:00:25;0.93;;;0.80;;
51238;SDS011;38154;47.548;18.828;2022-07-10T08:02:54;1.50;;;0.80;;
51238;SDS011;38154;47.548;18.828;2022-07-10T08:05:21;2.05;;;0.77;;
51238;SDS011;38154;47.548;18.828;2022-07-10T08:07:50;1.30;;;0.73;;
51238;SDS011;38154;47.548;18.828;2022-07-10T08:10:17;0.90;;;0.65;;
51238;SDS011;38154;47.548;18.828;2022-07-10T08:12:45;1.05;;;0.93;;
51238;SDS011;38154;47.548;18.828;2022-07-10T08:15:12;1.25;;;1.00;;
51238;SDS011;38154;47.548;18.828;2022-07-10T08:17:40;0.73;;;0.73;;
51238;SDS011;38154;47.548;18.828;2022-07-10T08:20:09;0.80;;;0.80;;
51238;SDS011;38154;47.548;18.828;2022-07-10T08:22:38;1.75;;;0.68;;
51238;SDS011;38154;47.548;18.828;2022-07-10T08:25:04;3.55;;;0.75;;
51238;SDS011;38154;47.548;18.828;2022-07-10T08:27:30;1.25;;;1.08;;
51238;SDS011;38154;47.548;18.828;2022-07-10T08:29:56;1.17;;;0.77;;
51238;SDS011;38154;47.548;18.828;2022-07-10T08:32:22;3.60;;;0.77;;
51238;SDS011;38154;47.548;18.828;2022-07-10T08:34:48;3.15;;;0.90;;
51238;SDS011;38154;47.548;18.828;2022-07-10T08:37:15;2.03;;;0.90;;
51238;SDS011;38154;47.548;18.828;2022-07-10T08:39:41;4.28;;;0.75;;
51238;SDS011;38154;47.548;18.828;2022-07-10T08:42:07;1.23;;;0.90;;
51238;SDS011;38154;47.548;18.828;2022-07-10T08:44:36;4.00;;;0.75;;
51238;SDS011;38154;47.548;18.828;2022-07-10T08:47:03;0.85;;;0.77;;
51238;SDS011;38154;47.548;18.828;2022-07-10T08:49:30;1.50;;;0.70;;
51238;SDS011;38154;47.548;18.828;2022-07-10T08:52:11;1.23;;;0.73;;
51238;SDS011;38154;47.548;18.828;2022-07-10T08:54:47;0.80;;;0.60;;
51238;SDS011;38154;47.548;18.828;2022-07-10T08:57:13;1.27;;;0.70;;
51238;SDS011;38154;47.548;18.828;2022-07-10T08:59:42;1.00;;;0.70;;
51238;SDS011;38154;47.548;18.828;2022-07-10T09:02:08;2.08;;;0.75;;
51238;SDS011;38154;47.548;18.828;2022-07-10T09:04:34;1.65;;;0.70;;
51238;SDS011;38154;47.548;18.828;2022-07-10T09:07:00;1.77;;;0.70;;
51238;SDS011;38154;47.548;18.828;2022-07-10T09:09:26;1.25;;;0.52;;
51238;SDS011;38154;47.548;18.828;2022-07-10T09:11:56;1.20;;;0.77;;
51238;SDS011;38154;47.548;18.828;2022-07-10T09:14:23;0.65;;;0.40;;
51238;SDS011;38154;47.548;18.828;2022-07-10T09:16:51;3.80;;;1.10;;
51238;SDS011;38154;47.548;18.828;2022-07-10T09:19:18;0.57;;;0.55;;
51238;SDS011;38154;47.548;18.828;2022-07-10T09:21:46;1.12;;;0.52;;
51238;SDS011;38154;47.548;18.828;2022-07-10T09:24:16;2.28;;;0.70;;
51238;SDS011;38154;47.548;18.828;2022-07-10T09:26:57;2.53;;;0.60;;
51238;SDS011;38154;47.548;18.828;2022-07-10T09:29:29;0.80;;;0.50;;
51238;SDS011;38154;47.548;18.828;2022-07-10T09:31:57;2.60;;;0.60;;
51238;SDS011;38154;47.548;18.828;2022-07-10T09:34:43;1.75;;;0.60;;
51238;SDS011;38154;47.548;18.828;2022-07-10T09:39:50;1.05;;;0.70;;
51238;SDS011;38154;47.548;18.828;2022-07-10T09:42:27;2.25;;;0.70;;
51238;SDS011;38154;47.548;18.828;2022-07-10T09:47:35;1.35;;;0.52;;
51238;SDS011;38154;47.548;18.828;2022-07-10T09:50:01;0.75;;;0.52;;
51238;SDS011;38154;47.548;18.828;2022-07-10T09:52:27;0.88;;;0.50;;
51238;SDS011;38154;47.548;18.828;2022-07-10T09:54:54;2.28;;;0.50;;
51238;SDS011;38154;47.548;18.828;2022-07-10T09:57:21;0.40;;;0.40;;
51238;SDS011;38154;47.548;18.828;2022-07-10T09:59:53;1.15;;;0.50;;
51238;SDS011;38154;47.548;18.828;2022-07-10T10:02:21;0.50;;;0.45;;
51238;SDS011;38154;47.548;18.828;2022-07-10T10:04:48;1.00;;;0.80;;
51238;SDS011;38154;47.548;18.828;2022-07-10T10:07:15;5.35;;;0.73;;
51238;SDS011;38154;47.548;18.828;2022-07-10T10:09:48;1.58;;;0.60;;
51238;SDS011;38154;47.548;18.828;2022-07-10T10:12:31;1.87;;;0.55;;
51238;SDS011;38154;47.548;18.828;2022-07-10T10:15:01;1.10;;;0.70;;
51238;SDS011;38154;47.548;18.828;2022-07-10T10:17:28;0.80;;;0.60;;
51238;SDS011;38154;47.548;18.828;2022-07-10T10:19:54;1.20;;;0.55;;
51238;SDS011;38154;47.548;18.828;2022-07-10T10:22:40;1.17;;;0.43;;
51238;SDS011;38154;47.548;18.828;2022-07-10T10:25:07;0.77;;;0.50;;
51238;SDS011;38154;47.548;18.828;2022-07-10T10:27:35;1.05;;;0.82;;
51238;SDS011;38154;47.548;18.828;2022-07-10T10:30:02;0.77;;;0.55;;
51238;SDS011;38154;47.548;18.828;2022-07-10T10:32:28;2.83;;;0.70;;
51238;SDS011;38154;47.548;18.828;2022-07-10T10:34:54;8.65;;;0.75;;
51238;SDS011;38154;47.548;18.828;2022-07-10T10:39:55;1.70;;;0.62;;
51238;SDS011;38154;47.548;18.828;2022-07-10T10:42:34;3.03;;;0.80;;
51238;SDS011;38154;47.548;18.828;2022-07-10T10:48:04;3.20;;;0.68;;
51238;SDS011;38154;47.548;18.828;2022-07-10T10:53:04;0.52;;;0.45;;
51238;SDS011;38154;47.548;18.828;2022-07-10T10:55:37;0.50;;;0.50;;
51238;SDS011;38154;47.548;18.828;2022-07-10T10:58:15;1.73;;;0.60;;
51238;SDS011;38154;47.548;18.828;2022-07-10T11:00:49;1.02;;;0.43;;
51238;SDS011;38154;47.548;18.828;2022-07-10T11:03:16;4.12;;;0.60;;
51238;SDS011;38154;47.548;18.828;2022-07-10T11:05:47;3.00;;;0.70;;
51238;SDS011;38154;47.548;18.828;2022-07-10T11:08:14;0.98;;;0.70;;
51238;SDS011;38154;47.548;18.828;2022-07-10T11:14:03;1.58;;;0.90;;
51238;SDS011;38154;47.548;18.828;2022-07-10T11:16:30;2.70;;;0.80;;
51238;SDS011;38154;47.548;18.828;2022-07-10T11:18:57;1.67;;;0.68;;
51238;SDS011;38154;47.548;18.828;2022-07-10T11:21:24;1.20;;;0.60;;
51238;SDS011;38154;47.548;18.828;2022-07-10T11:24:08;3.85;;;0.75;;
51238;SDS011;38154;47.548;18.828;2022-07-10T11:26:55;1.15;;;1.02;;
51238;SDS011;38154;47.548;18.828;2022-07-10T11:29:27;4.43;;;0.93;;
51238;SDS011;38154;47.548;18.828;2022-07-10T11:31:53;5.80;;;0.90;;
51238;SDS011;38154;47.548;18.828;2022-07-10T11:34:21;4.03;;;1.00;;
51238;SDS011;38154;47.548;18.828;2022-07-10T11:36:48;4.15;;;0.90;;
51238;SDS011;38154;47.548;18.828;2022-07-10T11:39:14;1.02;;;0.90;;
51238;SDS011;38154;47.548;18.828;2022-07-10T11:41:43;1.33;;;0.80;;
51238;SDS011;38154;47.548;18.828;2022-07-10T11:44:14;3.05;;;0.93;;
51238;SDS011;38154;47.548;18.828;2022-07-10T11:46:41;2.03;;;0.80;;
51238;SDS011;38154;47.548;18.828;2022-07-10T11:49:10;0.88;;;0.77;;
51238;SDS011;38154;47.548;18.828;2022-07-10T11:51:39;2.10;;;0.80;;
51238;SDS011;38154;47.548;18.828;2022-07-10T11:54:13;0.57;;;0.57;;
51238;SDS011;38154;47.548;18.828;2022-07-10T11:56:42;0.43;;;0.40;;
51238;SDS011;38154;47.548;18.828;2022-07-10T11:59:12;1.48;;;0.50;;
51238;SDS011;38154;47.548;18.828;2022-07-10T12:01:42;6.82;;;0.70;;
51238;SDS011;38154;47.548;18.828;2022-07-10T12:04:08;1.15;;;0.40;;
51238;SDS011;38154;47.548;18.828;2022-07-10T12:06:38;0.82;;;0.50;;
51238;SDS011;38154;47.548;18.828;2022-07-10T12:09:09;1.02;;;0.57;;
51238;SDS011;38154;47.548;18.828;2022-07-10T12:11:36;2.15;;;0.60;;
51238;SDS011;38154;47.548;18.828;2022-07-10T12:16:47;2.00;;;0.57;;
51238;SDS011;38154;47.548;18.828;2022-07-10T12:19:15;0.98;;;0.60;;
51238;SDS011;38154;47.548;18.828;2022-07-10T12:21:43;0.88;;;0.70;;
51238;SDS011;38154;47.548;18.828;2022-07-10T12:24:11;0.43;;;0.43;;
51238;SDS011;38154;47.548;18.828;2022-07-10T12:26:38;0.60;;;0.60;;
51238;SDS011;38154;47.548;18.828;2022-07-10T12:29:05;0.93;;;0.50;;
51238;SDS011;38154;47.548;18.828;2022-07-10T12:31:32;2.17;;;0.50;;
51238;SDS011;38154;47.548;18.828;2022-07-10T12:34:02;2.12;;;0.60;;
51238;SDS011;38154;47.548;18.828;2022-07-10T12:36:42;1.00;;;0.50;;
51238;SDS011;38154;47.548;18.828;2022-07-10T12:39:09;0.77;;;0.50;;
51238;SDS011;38154;47.548;18.828;2022-07-10T12:44:44;2.90;;;0.55;;
51238;SDS011;38154;47.548;18.828;2022-07-10T12:47:17;1.35;;;0.50;;
51238;SDS011;38154;47.548;18.828;2022-07-10T12:52:28;1.80;;;0.90;;
51238;SDS011;38154;47.548;18.828;2022-07-10T13:00:23;1.67;;;0.65;;
51238;SDS011;38154;47.548;18.828;2022-07-10T13:02:57;0.62;;;0.62;;
51238;SDS011;38154;47.548;18.828;2022-07-10T13:05:25;2.42;;;0.55;;
51238;SDS011;38154;47.548;18.828;2022-07-10T13:10:36;1.37;;;0.80;;
51238;SDS011;38154;47.548;18.828;2022-07-10T13:13:02;1.12;;;0.70;;
51238;SDS011;38154;47.548;18.828;2022-07-10T13:15:29;1.20;;;0.70;;
51238;SDS011;38154;47.548;18.828;2022-07-10T13:17:56;1.48;;;0.52;;
51238;SDS011;38154;47.548;18.828;2022-07-10T13:20:22;2.17;;;0.85;;
51238;SDS011;38154;47.548;18.828;2022-07-10T13:22:49;1.00;;;0.80;;
51238;SDS011;38154;47.548;18.828;2022-07-10T13:25:15;1.12;;;0.70;;
51238;SDS011;38154;47.548;18.828;2022-07-10T13:27:40;2.55;;;1.17;;
51238;SDS011;38154;47.548;18.828;2022-07-10T13:30:07;5.57;;;0.65;;
51238;SDS011;38154;47.548;18.828;2022-07-10T13:32:33;11.82;;;0.80;;
51238;SDS011;38154;47.548;18.828;2022-07-10T13:34:59;3.03;;;0.98;;
51238;SDS011;38154;47.548;18.828;2022-07-10T13:37:25;0.80;;;0.73;;
51238;SDS011;38154;47.548;18.828;2022-07-10T13:39:52;3.45;;;0.80;;
51238;SDS011;38154;47.548;18.828;2022-07-10T13:42:18;4.62;;;0.80;;
51238;SDS011;38154;47.548;18.828;2022-07-10T13:44:43;4.97;;;0.73;;
51238;SDS011;38154;47.548;18.828;2022-07-10T13:47:09;1.02;;;0.80;;
51238;SDS011;38154;47.548;18.828;2022-07-10T13:49:35;3.22;;;1.10;;
51238;SDS011;38154;47.548;18.828;2022-07-10T13:52:02;2.37;;;0.70;;
51238;SDS011;38154;47.548;18.828;2022-07-10T13:54:28;2.50;;;0.77;;
51238;SDS011;38154;47.548;18.828;2022-07-10T13:56:54;1.45;;;0.70;;
51238;SDS011;38154;47.548;18.828;2022-07-10T13:59:19;3.78;;;1.08;;
51238;SDS011;38154;47.548;18.828;2022-07-10T14:01:45;1.23;;;0.57;;
51238;SDS011;38154;47.548;18.828;2022-07-10T14:04:11;2.92;;;0.88;;
51238;SDS011;38154;47.548;18.828;2022-07-10T14:06:37;2.67;;;0.50;;
51238;SDS011;38154;47.548;18.828;2022-07-10T14:09:03;0.73;;;0.60;;
51238;SDS011;38154;47.548;18.828;2022-07-10T14:11:29;5.65;;;0.77;;
51238;SDS011;38154;47.548;18.828;2022-07-10T14:13:55;1.87;;;0.70;;
51238;SDS011;38154;47.548;18.828;2022-07-10T14:16:21;2.87;;;0.75;;
51238;SDS011;38154;47.548;18.828;2022-07-10T14:18:46;3.25;;;0.60;;
51238;SDS011;38154;47.548;18.828;2022-07-10T14:21:12;0.88;;;0.60;;
51238;SDS011;38154;47.548;18.828;2022-07-10T14:26:10;1.37;;;0.70;;
51238;SDS011;38154;47.548;18.828;2022-07-10T14:28:37;3.42;;;1.00;;
51238;SDS011;38154;47.548;18.828;2022-07-10T14:31:04;3.87;;;0.70;;
51238;SDS011;38154;47.548;18.828;2022-07-10T14:33:31;0.68;;;0.57;;
51238;SDS011;38154;47.548;18.828;2022-07-10T14:35:58;2.28;;;0.50;;
51238;SDS011;38154;47.548;18.828;2022-07-10T14:40:49;1.83;;;0.62;;
51238;SDS011;38154;47.548;18.828;2022-07-10T14:43:21;2.10;;;0.55;;
51238;SDS011;38154;47.548;18.828;2022-07-10T14:45:48;2.97;;;0.60;;
51238;SDS011;38154;47.548;18.828;2022-07-10T14:48:14;5.50;;;0.77;;
51238;SDS011;38154;47.548;18.828;2022-07-10T14:50:40;1.48;;;0.50;;
51238;SDS011;38154;47.548;18.828;2022-07-10T14:53:07;5.18;;;0.45;;
51238;SDS011;38154;47.548;18.828;2022-07-10T14:55:34;4.18;;;0.70;;
51238;SDS011;38154;47.548;18.828;2022-07-10T14:58:00;2.08;;;0.60;;
51238;SDS011;38154;47.548;18.828;2022-07-10T15:00:26;3.05;;;0.73;;
51238;SDS011;38154;47.548;18.828;2022-07-10T15:02:52;3.55;;;0.65;;
51238;SDS011;38154;47.548;18.828;2022-07-10T15:05:18;0.45;;;0.32;;
51238;SDS011;38154;47.548;18.828;2022-07-10T15:10:10;1.00;;;0.40;;
51238;SDS011;38154;47.548;18.828;2022-07-10T15:12:36;1.52;;;0.75;;
51238;SDS011;38154;47.548;18.828;2022-07-10T15:15:04;2.10;;;0.80;;
51238;SDS011;38154;47.548;18.828;2022-07-10T15:17:34;2.28;;;0.57;;
51238;SDS011;38154;47.548;18.828;2022-07-10T15:20:00;1.25;;;0.60;;
51238;SDS011;38154;47.548;18.828;2022-07-10T15:24:52;1.33;;;0.50;;
51238;SDS011;38154;47.548;18.828;2022-07-10T15:27:18;3.72;;;0.60;;
51238;SDS011;38154;47.548;18.828;2022-07-10T15:29:44;5.32;;;0.68;;
51238;SDS011;38154;47.548;18.828;2022-07-10T15:32:10;2.50;;;0.50;;
51238;SDS011;38154;47.548;18.828;2022-07-10T15:34:37;2.15;;;0.47;;
51238;SDS011;38154;47.548;18.828;2022-07-10T15:37:04;1.10;;;0.47;;
51238;SDS011;38154;47.548;18.828;2022-07-10T15:39:30;6.25;;;0.50;;